Time;durP1;ratioP1;P1;durP2;ratioP2;P2;SDS_P1;SDS_P2;PMS_P1;PMS_P2;Temp;Humidity;BMP_temperature;BMP_pressure;BME280_temperature;BME280_humidity;BME280_pressure;Samples;Min_cycle;Max_cycle;Signal;HPM_P1;HPM_P2
2021/07/19 00:01:06;;;;;;;13.23;5.47;;;;;;;17.34;86.57;101172.78;5126436;28;20390;-78
2021/07/19 00:03:36;;;;;;;17.58;6.03;;;;;;;17.35;87.08;101171.03;5127083;28;20077;-78
2021/07/19 00:06:07;;;;;;;13.52;5.60;;;;;;;17.37;86.96;101172.66;5127396;28;20042;-78
2021/07/19 00:08:37;;;;;;;18.08;6.05;;;;;;;17.32;86.58;101172.00;5130969;28;20023;-78
2021/07/19 00:11:07;;;;;;;16.35;5.57;;;;;;;17.30;87.52;101173.03;5132515;28;20031;-78
2021/07/19 00:13:38;;;;;;;15.77;6.03;;;;;;;17.47;86.42;101178.31;5127609;28;20031;-78
2021/07/19 00:16:08;;;;;;;14.80;5.93;;;;;;;17.61;86.51;101173.09;5130236;28;20555;-78
2021/07/19 00:18:39;;;;;;;13.00;5.95;;;;;;;17.56;86.57;101176.00;5123153;28;20034;-78
2021/07/19 00:21:09;;;;;;;17.42;6.18;;;;;;;17.63;85.67;101168.59;5119728;28;20397;-78
2021/07/19 00:23:40;;;;;;;15.82;5.85;;;;;;;17.46;86.89;101172.16;5121259;28;20305;-78
2021/07/19 00:26:11;;;;;;;15.15;5.75;;;;;;;17.45;86.16;101169.59;5123968;28;20027;-78
2021/07/19 00:28:41;;;;;;;17.73;6.15;;;;;;;17.57;86.29;101167.13;5123548;28;20043;-78
2021/07/19 00:31:12;;;;;;;14.63;5.82;;;;;;;17.47;88.04;101167.72;5121849;28;20031;-78
2021/07/19 00:33:43;;;;;;;14.95;6.00;;;;;;;17.52;86.59;101165.69;5122573;28;20054;-78
2021/07/19 00:36:14;;;;;;;18.15;6.25;;;;;;;17.32;87.69;101174.63;5122785;28;20038;-77
2021/07/19 00:38:44;;;;;;;13.45;5.32;;;;;;;17.43;87.04;101172.31;5124912;28;20405;-78
2021/07/19 00:41:14;;;;;;;13.63;5.78;;;;;;;17.48;87.47;101175.56;5126071;28;20572;-78
2021/07/19 00:43:45;;;;;;;15.73;5.80;;;;;;;17.48;86.67;101175.56;5125679;28;20523;-78
2021/07/19 00:46:15;;;;;;;17.80;5.97;;;;;;;17.58;86.66;101175.91;5128763;28;20645;-78
2021/07/19 00:48:46;;;;;;;13.85;6.10;;;;;;;17.46;86.56;101179.25;5124796;28;20122;-78
2021/07/19 00:51:16;;;;;;;13.65;5.97;;;;;;;17.51;86.83;101170.09;5117262;28;20031;-77
2021/07/19 00:53:46;;;;;;;14.52;6.25;;;;;;;17.48;86.53;101169.44;5117959;29;20050;-78
2021/07/19 00:56:17;;;;;;;13.40;5.70;;;;;;;17.46;86.72;101161.56;5121971;28;20519;-78
2021/07/19 00:58:50;;;;;;;11.73;5.90;;;;;;;17.34;87.61;101166.69;5121179;28;20447;-78
2021/07/19 01:01:21;;;;;;;12.80;5.90;;;;;;;17.54;86.43;101163.81;5121114;29;20038;-78
2021/07/19 01:03:56;;;;;;;13.13;6.00;;;;;;;17.43;87.15;101169.66;5121260;28;20031;-78
2021/07/19 01:06:29;;;;;;;13.40;5.97;;;;;;;17.51;86.01;101166.63;5121192;28;20027;-78
2021/07/19 01:09:01;;;;;;;14.30;5.85;;;;;;;17.27;87.21;101170.53;5127319;28;20027;-78
2021/07/19 01:11:32;;;;;;;16.83;6.47;;;;;;;17.39;87.13;101169.91;5123956;28;20035;-78
2021/07/19 01:14:03;;;;;;;10.35;5.35;;;;;;;17.29;87.60;101163.41;5125579;28;20161;-78
2021/07/19 01:16:33;;;;;;;12.05;5.90;;;;;;;17.27;87.84;101160.81;5123901;28;20094;-78
2021/07/19 01:19:04;;;;;;;12.50;6.05;;;;;;;17.20;87.29;101167.38;5120770;28;20505;-78
2021/07/19 01:22:12;;;;;;;11.90;6.22;;;;;;;17.33;86.86;101162.28;5120671;28;20058;-78
2021/07/19 01:24:43;;;;;;;18.13;6.55;;;;;;;17.07;88.45;101162.81;5117177;29;20098;-78
2021/07/19 01:27:32;;;;;;;11.75;6.20;;;;;;;17.10;88.97;101158.22;5119620;28;20023;-78
2021/07/19 01:30:05;;;;;;;13.25;5.80;;;;;;;17.30;87.13;101160.66;5119411;29;20042;-78
2021/07/19 01:32:41;;;;;;;13.02;5.97;;;;;;;17.31;87.36;101156.25;5121052;28;20035;-78
2021/07/19 01:35:12;;;;;;;;;;;;;;;17.34;86.73;101150.81;5119675;29;20043;-78
2021/07/19 01:37:45;;;;;;;13.77;5.72;;;;;;;17.32;87.26;101153.50;5124245;28;20312;-78
2021/07/19 01:40:17;;;;;;;15.23;6.03;;;;;;;17.25;87.27;101145.97;5134213;28;20405;-78
2021/07/19 01:42:47;;;;;;;15.43;5.88;;;;;;;17.42;85.92;101148.59;5125155;29;20070;-79
2021/07/19 01:45:18;;;;;;;14.52;6.15;;;;;;;17.59;86.39;101151.19;5134907;28;20050;-78
2021/07/19 01:47:50;;;;;;;17.85;5.88;;;;;;;17.61;85.42;101144.00;5125498;28;20027;-78
2021/07/19 01:50:20;;;;;;;13.20;6.35;;;;;;;17.58;85.87;101139.75;5125745;28;20457;-78
2021/07/19 01:52:52;;;;;;;15.30;5.97;;;;;;;17.60;85.83;101147.59;5124786;28;20035;-78
2021/07/19 01:55:22;;;;;;;10.63;5.80;;;;;;;17.64;85.75;101149.16;5124847;28;20420;-78
2021/07/19 01:57:53;;;;;;;12.13;6.18;;;;;;;17.77;85.03;101145.72;5125543;28;20031;-78
2021/07/19 02:00:23;;;;;;;13.82;5.90;;;;;;;17.75;84.58;101147.63;5124267;28;20137;-78
2021/07/19 02:02:54;;;;;;;13.55;6.00;;;;;;;17.73;84.66;101138.06;5123267;29;20038;-78
2021/07/19 02:05:25;;;;;;;13.45;6.03;;;;;;;17.73;85.22;101143.34;5124500;28;20481;-78
2021/07/19 02:07:59;;;;;;;12.02;5.72;;;;;;;17.71;85.56;101140.81;5125099;28;20044;-78
2021/07/19 02:10:31;;;;;;;16.30;6.15;;;;;;;17.56;86.01;101140.78;5124046;28;20089;-78
2021/07/19 02:13:05;;;;;;;13.43;5.93;;;;;;;17.50;86.74;101144.59;5124806;28;20034;-78
2021/07/19 02:15:37;;;;;;;13.82;5.68;;;;;;;17.48;86.50;101149.13;5130479;28;20039;-78
2021/07/19 02:18:11;;;;;;;15.25;6.03;;;;;;;17.28;87.95;101151.13;5123481;28;20442;-77
2021/07/19 02:20:43;;;;;;;19.38;6.10;;;;;;;17.34;87.70;101153.47;5122420;29;20034;-79
2021/07/19 02:23:15;;;;;;;19.08;6.30;;;;;;;17.44;86.91;101152.00;5126185;29;20497;-79
2021/07/19 02:25:48;;;;;;;13.85;5.70;;;;;;;17.51;86.92;101153.41;5127698;28;20038;-79
2021/07/19 02:28:19;;;;;;;18.98;6.00;;;;;;;17.49;87.16;101150.81;5127788;28;20016;-80
2021/07/19 02:30:50;;;;;;;15.07;5.88;;;;;;;17.37;87.54;101155.94;5126515;29;20035;-77
2021/07/19 02:33:21;;;;;;;17.55;6.05;;;;;;;17.44;88.06;101155.53;5126648;29;20031;-77
2021/07/19 02:35:53;;;;;;;13.45;5.57;;;;;;;17.41;88.62;101157.47;5127972;28;20038;-77
2021/07/19 02:38:27;;;;;;;19.88;5.72;;;;;;;17.21;88.97;101155.00;5130654;28;20053;-76
2021/07/19 02:40:58;;;;;;;16.10;5.45;;;;;;;17.28;88.88;101148.50;5133089;28;20031;-80
2021/07/19 02:43:29;;;;;;;18.90;6.10;;;;;;;17.31;88.40;101156.25;5129516;28;20401;-79
2021/07/19 02:46:01;;;;;;;14.23;5.47;;;;;;;17.23;89.05;101154.00;5131963;28;20039;-76
2021/07/19 02:48:36;;;;;;;16.17;5.70;;;;;;;17.24;88.74;101150.44;5127943;28;20033;-79
2021/07/19 02:51:09;;;;;;;10.93;4.90;;;;;;;17.15;89.89;101155.34;5127303;28;20478;-77
2021/07/19 02:53:40;;;;;;;19.92;5.82;;;;;;;17.19;89.85;101167.47;5128607;28;20039;-80
2021/07/19 02:56:10;;;;;;;16.58;5.57;;;;;;;17.04;89.72;101158.56;5122352;29;20118;-76
2021/07/19 02:58:40;;;;;;;15.43;5.15;;;;;;;17.04;90.21;101166.50;5127700;28;20505;-78
2021/07/19 03:01:15;;;;;;;15.07;5.22;;;;;;;16.90;90.72;101160.19;5127357;29;20517;-78
2021/07/19 03:03:48;;;;;;;18.27;5.88;;;;;;;16.86;90.42;101158.66;5125992;28;20038;-78
2021/07/19 03:06:21;;;;;;;20.55;5.93;;;;;;;16.72;91.24;101152.41;5126938;28;20027;-80
2021/07/19 03:08:52;;;;;;;13.90;5.40;;;;;;;16.79;91.29;101162.56;5130192;28;20035;-78
2021/07/19 03:11:37;;;;;;;15.15;5.22;;;;;;;16.82;91.15;101163.22;5130203;28;20033;-78
2021/07/19 03:14:12;;;;;;;13.00;5.07;;;;;;;16.88;91.02;101164.72;5131460;28;20027;-79
2021/07/19 03:16:45;;;;;;;17.50;5.37;;;;;;;16.96;89.63;101166.03;5127713;28;20023;-77
2021/07/19 03:19:17;;;;;;;19.15;5.30;;;;;;;17.03;88.83;101164.78;5126625;28;20497;-77
2021/07/19 03:21:51;;;;;;;18.25;4.90;;;;;;;17.01;87.91;101169.25;5126958;28;20035;-80
2021/07/19 03:24:22;;;;;;;15.40;4.60;;;;;;;17.02;87.34;101173.66;5127020;28;20027;-78
2021/07/19 03:26:53;;;;;;;12.95;4.30;;;;;;;16.95;86.27;101179.31;5125571;29;20161;-79
2021/07/19 03:29:24;;;;;;;18.30;4.82;;;;;;;17.06;84.92;101176.94;5125744;28;20046;-79
2021/07/19 03:31:55;;;;;;;14.70;4.53;;;;;;;16.93;84.65;101175.88;5125009;29;20661;-78
2021/07/19 03:34:26;;;;;;;16.48;5.00;;;;;;;17.06;83.56;101174.31;5125844;29;20023;-78
2021/07/19 03:36:57;;;;;;;14.90;4.43;;;;;;;17.04;83.17;101168.25;5125981;28;20023;-78
2021/07/19 03:39:28;;;;;;;11.60;3.90;;;;;;;17.08;82.50;101170.66;5125987;28;20038;-76
2021/07/19 03:41:59;;;;;;;14.32;4.38;;;;;;;17.10;81.63;101173.22;5126258;28;20027;-79
2021/07/19 03:44:31;;;;;;;15.77;4.18;;;;;;;17.03;82.19;101174.47;5131696;28;20046;-77
2021/07/19 03:47:01;;;;;;;11.98;3.95;;;;;;;17.05;82.35;101186.69;5129782;28;20027;-79
2021/07/19 03:49:33;;;;;;;14.80;4.53;;;;;;;17.07;82.33;101176.88;5126572;28;20504;-78
2021/07/19 03:52:04;;;;;;;13.27;3.88;;;;;;;17.12;81.71;101187.22;5124902;29;20535;-79
2021/07/19 03:54:34;;;;;;;13.32;4.30;;;;;;;17.04;82.49;101186.75;5126139;29;20437;-79
2021/07/19 03:57:05;;;;;;;13.20;4.03;;;;;;;17.15;81.70;101190.53;5121234;28;20038;-79
2021/07/19 03:59:36;;;;;;;13.73;4.32;;;;;;;17.11;81.06;101190.78;5121015;28;20500;-77
2021/07/19 04:02:11;;;;;;;12.40;3.90;;;;;;;17.01;81.42;101194.84;5123630;28;20151;-78
2021/07/19 04:04:45;;;;;;;14.05;4.13;;;;;;;16.78;81.65;101200.47;5121913;29;20054;-79
2021/07/19 04:07:16;;;;;;;14.30;3.92;;;;;;;16.85;81.83;101194.78;5126251;28;20051;-79
2021/07/19 04:09:46;;;;;;;17.25;3.97;;;;;;;16.88;81.64;101188.47;5131496;28;20430;-77
2021/07/19 04:12:17;;;;;;;12.70;3.97;;;;;;;16.98;81.29;101192.38;5127906;28;20082;-78
2021/07/19 04:14:48;;;;;;;12.73;3.90;;;;;;;17.09;80.98;101187.34;5131837;28;20031;-79
2021/07/19 04:17:18;;;;;;;17.80;4.10;;;;;;;16.91;81.30;101183.91;5127200;28;20034;-78
2021/07/19 04:19:49;;;;;;;13.27;3.72;;;;;;;17.15;80.87;101187.06;5124413;29;20054;-76
2021/07/19 04:22:20;;;;;;;11.15;3.78;;;;;;;17.12;80.42;101188.06;5125343;28;20030;-76
2021/07/19 04:24:50;;;;;;;12.27;3.50;;;;;;;17.20;80.11;101198.22;5128271;28;20057;-79
2021/07/19 04:27:21;;;;;;;14.90;4.10;;;;;;;16.98;81.14;101187.91;5132469;28;20106;-78
2021/07/19 04:29:52;;;;;;;11.82;3.85;;;;;;;17.16;81.19;101194.03;5124657;28;21029;-77
2021/07/19 04:32:22;;;;;;;12.85;3.70;;;;;;;17.27;80.39;101192.53;5130044;28;20027;-79
2021/07/19 04:34:53;;;;;;;15.25;3.95;;;;;;;17.25;79.40;101193.53;5132199;28;20038;-78
2021/07/19 04:37:23;;;;;;;14.57;4.00;;;;;;;17.29;78.64;101192.47;5129635;28;20023;-79
2021/07/19 04:39:53;;;;;;;10.75;4.10;;;;;;;17.37;78.53;101198.22;5135596;28;20286;-78
2021/07/19 04:42:24;;;;;;;10.88;3.50;;;;;;;17.24;77.56;101194.47;5131726;28;20041;-78
2021/07/19 04:44:54;;;;;;;13.80;3.40;;;;;;;17.28;77.44;101196.06;5135772;28;20026;-79
2021/07/19 04:47:24;;;;;;;15.20;3.80;;;;;;;17.48;76.55;101198.50;5132475;28;20393;-80
2021/07/19 04:49:55;;;;;;;9.77;3.55;;;;;;;17.58;75.86;101197.06;5128408;28;20041;-79
2021/07/19 04:52:25;;;;;;;14.05;3.47;;;;;;;17.63;75.47;101193.22;5148643;28;20054;-78
2021/07/19 04:54:57;;;;;;;12.63;3.58;;;;;;;17.96;76.27;101186.09;5132737;28;20558;-78
2021/07/19 04:57:28;;;;;;;16.63;3.67;;;;;;;18.02;77.00;101185.72;5131452;28;20027;-78
2021/07/19 05:00:01;;;;;;;11.90;3.40;;;;;;;17.83;75.04;101202.72;5134165;28;20030;-80
2021/07/19 05:02:34;;;;;;;13.93;3.80;;;;;;;18.00;74.44;101207.94;5130242;28;20034;-78
2021/07/19 05:05:06;;;;;;;10.15;3.17;;;;;;;17.96;74.39;101199.31;5132542;28;20027;-79
2021/07/19 05:07:37;;;;;;;12.70;3.50;;;;;;;17.92;73.92;101203.06;5124571;28;20142;-77
2021/07/19 05:10:09;;;;;;;11.35;3.10;;;;;;;17.86;74.86;101202.56;5127969;28;20432;-80
2021/07/19 05:12:43;;;;;;;11.05;3.22;;;;;;;17.95;73.81;101204.66;5127434;28;20027;-78
2021/07/19 05:15:15;;;;;;;10.05;3.03;;;;;;;17.74;73.70;101213.78;5134907;28;20049;-79
2021/07/19 05:17:45;;;;;;;12.65;3.28;;;;;;;17.69;74.99;101207.91;5130119;28;20031;-77
2021/07/19 05:20:20;;;;;;;10.57;3.20;;;;;;;17.67;73.12;101202.69;5128442;29;20038;-80
2021/07/19 05:22:53;;;;;;;11.95;2.80;;;;;;;17.58;72.93;101208.50;5129699;28;20453;-79
2021/07/19 05:25:25;;;;;;;12.18;2.67;;;;;;;17.63;72.71;101210.91;5132860;29;20035;-78
2021/07/19 05:28:10;;;;;;;11.32;3.08;;;;;;;17.78;72.88;101204.75;5136498;29;20034;-77
2021/07/19 05:30:43;;;;;;;12.25;3.20;;;;;;;17.70;75.08;101206.97;5134448;29;20035;-77
2021/07/19 05:33:21;;;;;;;14.63;3.38;;;;;;;18.02;74.28;101214.00;5132095;28;20425;-79
2021/07/19 05:35:53;;;;;;;11.10;3.00;;;;;;;17.98;75.52;101217.75;5128280;29;20031;-80
2021/07/19 05:38:24;;;;;;;13.00;3.40;;;;;;;18.21;74.38;101204.91;5132777;28;20109;-80
2021/07/19 05:40:54;;;;;;;11.95;3.47;;;;;;;18.25;73.65;101210.88;5135449;28;20037;-79
2021/07/19 05:43:25;;;;;;;13.23;3.45;;;;;;;18.24;71.95;101209.19;5132312;28;20129;-78
2021/07/19 05:45:55;;;;;;;8.93;2.97;;;;;;;18.18;72.41;101215.69;5135381;28;20444;-79
2021/07/19 05:48:25;;;;;;;18.17;3.05;;;;;;;18.15;73.01;101218.50;5128482;28;20070;-78
2021/07/19 05:50:57;;;;;;;11.07;3.15;;;;;;;17.99;72.29;101214.16;5128463;28;20039;-77
2021/07/19 05:53:27;;;;;;;12.25;2.90;;;;;;;18.03;72.68;101216.53;5130398;28;20023;-80
2021/07/19 05:55:57;;;;;;;8.98;2.90;;;;;;;18.07;73.23;101209.28;5127848;29;20528;-81
2021/07/19 05:58:28;;;;;;;13.43;3.28;;;;;;;18.18;73.05;101217.47;5128549;29;20042;-80
2021/07/19 06:00:59;;;;;;;13.77;3.17;;;;;;;18.19;72.69;101209.44;5128299;28;20027;-79
2021/07/19 06:03:29;;;;;;;13.63;2.88;;;;;;;18.29;72.23;101209.81;5129534;28;20047;-81
2021/07/19 06:05:59;;;;;;;9.43;2.92;;;;;;;18.39;71.64;101209.22;5129167;28;20066;-79
2021/07/19 06:08:29;;;;;;;10.93;3.30;;;;;;;18.28;72.51;101214.25;5130566;28;20320;-80
2021/07/19 06:11:00;;;;;;;13.43;3.20;;;;;;;18.00;72.69;101229.09;5135743;28;20509;-78
2021/07/19 06:13:30;;;;;;;12.27;3.15;;;;;;;18.14;72.57;101234.47;5139741;28;20015;-80
2021/07/19 06:16:00;;;;;;;11.90;3.28;;;;;;;18.19;72.55;101227.97;5138149;28;20643;-80
2021/07/19 06:18:30;;;;;;;9.32;2.92;;;;;;;18.08;72.45;101224.22;5134439;28;20132;-80
2021/07/19 06:21:01;;;;;;;9.07;2.92;;;;;;;18.09;72.43;101224.16;5128272;28;20513;-79
2021/07/19 06:23:31;;;;;;;7.57;3.00;;;;;;;18.28;72.48;101231.91;5127532;29;20034;-80
2021/07/19 06:26:02;;;;;;;10.10;3.05;;;;;;;18.25;72.53;101224.13;5128267;29;20135;-77
2021/07/19 06:28:32;;;;;;;14.38;3.10;;;;;;;18.32;72.89;101217.59;5127056;29;20030;-79
2021/07/19 06:31:02;;;;;;;8.45;2.55;;;;;;;18.25;73.38;101222.34;5126273;29;20042;-76
2021/07/19 06:33:33;;;;;;;8.50;2.90;;;;;;;18.22;72.87;101229.59;5136288;28;20027;-80
2021/07/19 06:36:03;;;;;;;8.82;2.78;;;;;;;18.17;73.14;101226.38;5126156;28;20034;-81
2021/07/19 06:38:33;;;;;;;9.85;3.08;;;;;;;18.43;73.68;101231.91;5126293;28;20030;-77
2021/07/19 06:41:04;;;;;;;9.40;2.80;;;;;;;18.54;72.92;101231.28;5129115;28;20106;-78
2021/07/19 06:43:34;;;;;;;12.23;3.47;;;;;;;18.45;72.97;101229.16;5130426;28;20041;-79
2021/07/19 06:46:04;;;;;;;13.00;3.27;;;;;;;18.57;72.65;101228.47;5134417;28;20058;-80
2021/07/19 06:48:35;;;;;;;12.00;2.88;;;;;;;18.58;73.43;101238.13;5128264;28;20296;-80
2021/07/19 06:51:06;;;;;;;15.50;3.45;;;;;;;18.32;72.95;101233.47;5126753;29;20130;-78
2021/07/19 06:53:36;;;;;;;8.43;3.13;;;;;;;18.42;73.15;101237.28;5127536;29;20027;-78
2021/07/19 06:56:07;;;;;;;10.83;2.87;;;;;;;18.61;72.96;101235.28;5127520;28;20027;-78
2021/07/19 06:58:37;;;;;;;12.70;3.38;;;;;;;18.66;73.35;101236.72;5128263;28;20302;-79
2021/07/19 07:01:07;;;;;;;10.18;2.85;;;;;;;18.73;72.61;101236.28;5130096;28;20110;-80
2021/07/19 07:03:38;;;;;;;16.17;3.20;;;;;;;18.65;72.13;101234.19;5130723;28;20030;-77
2021/07/19 07:06:08;;;;;;;12.13;3.03;;;;;;;18.49;73.63;101223.63;5132382;28;20031;-80
2021/07/19 07:08:38;;;;;;;12.27;3.17;;;;;;;18.42;74.12;101235.50;5152022;28;20022;-80
2021/07/19 07:11:09;;;;;;;13.80;3.40;;;;;;;18.64;72.74;101230.66;5127961;28;20102;-79
2021/07/19 07:13:40;;;;;;;10.40;2.80;;;;;;;18.83;73.04;101231.31;5133128;28;20645;-78
2021/07/19 07:16:11;;;;;;;11.40;3.40;;;;;;;18.75;73.50;101230.91;5130657;28;20713;-80
2021/07/19 07:18:41;;;;;;;12.45;2.88;;;;;;;18.98;71.92;101231.25;5126941;28;20102;-81
2021/07/19 07:21:11;;;;;;;12.32;3.17;;;;;;;19.09;71.61;101228.81;5126976;28;20026;-79
2021/07/19 07:23:42;;;;;;;12.90;2.87;;;;;;;18.82;72.95;101237.53;5131988;28;20027;-79
2021/07/19 07:26:12;;;;;;;11.18;2.83;;;;;;;18.76;71.65;101238.75;5125982;29;20279;-80
2021/07/19 07:28:45;;;;;;;10.68;3.20;;;;;;;18.89;71.17;101237.09;5126939;29;20031;-80
2021/07/19 07:31:15;;;;;;;8.98;2.80;;;;;;;19.02;71.71;101243.38;5127284;28;20525;-79
2021/07/19 07:33:45;;;;;;;10.68;2.72;;;;;;;19.23;70.55;101233.28;5129776;28;20066;-79
2021/07/19 07:36:15;;;;;;;11.00;2.80;;;;;;;19.18;71.44;101238.91;5127598;28;20026;-77
2021/07/19 07:38:46;;;;;;;12.55;3.22;;;;;;;18.93;72.03;101237.78;5130627;28;20560;-79
2021/07/19 07:41:17;;;;;;;12.73;3.17;;;;;;;19.08;73.00;101227.09;5132496;28;20035;-80
2021/07/19 07:43:49;;;;;;;13.82;3.28;;;;;;;19.22;72.21;101240.41;5129762;28;20027;-78
2021/07/19 07:46:19;;;;;;;10.68;3.10;;;;;;;19.11;72.98;101241.97;5133042;28;20027;-80
2021/07/19 07:48:52;;;;;;;7.57;2.50;;;;;;;19.38;70.89;101237.66;5126694;28;20037;-77
2021/07/19 07:51:22;;;;;;;12.70;2.97;;;;;;;19.64;70.68;101228.97;5127327;28;20050;-79
2021/07/19 07:53:52;;;;;;;15.32;3.17;;;;;;;19.50;70.32;101223.66;5127857;28;20027;-78
2021/07/19 07:56:22;;;;;;;14.33;3.47;;;;;;;19.56;71.35;101232.09;5128418;28;20027;-77
2021/07/19 07:58:53;;;;;;;11.23;2.95;;;;;;;19.35;72.26;101228.13;5126787;28;20797;-79
2021/07/19 08:01:23;;;;;;;12.05;3.10;;;;;;;19.42;70.90;101234.75;5126163;29;20106;-81
2021/07/19 08:03:54;;;;;;;11.95;3.20;;;;;;;19.25;71.67;101237.56;5126035;29;20035;-80
2021/07/19 08:06:24;;;;;;;10.02;3.10;;;;;;;19.43;70.71;101231.16;5125976;28;20035;-81
2021/07/19 08:08:54;;;;;;;10.82;3.08;;;;;;;19.68;69.25;101230.47;5129261;28;20051;-79
2021/07/19 08:11:26;;;;;;;11.55;3.63;;;;;;;19.89;69.60;101230.00;5133886;28;20080;-78
2021/07/19 08:13:57;;;;;;;12.77;2.97;;;;;;;19.58;71.31;101238.16;5128631;28;20101;-79
2021/07/19 08:16:28;;;;;;;10.25;2.80;;;;;;;19.65;70.14;101228.88;5133590;28;20065;-80
2021/07/19 08:18:58;;;;;;;11.90;3.05;;;;;;;19.95;70.07;101221.63;5123483;29;20027;-78
2021/07/19 08:21:28;;;;;;;10.68;3.22;;;;;;;20.27;69.74;101217.78;5121407;29;20110;-78
2021/07/19 08:23:59;;;;;;;11.15;2.92;;;;;;;20.30;69.11;101220.25;5122509;29;20058;-78
2021/07/19 08:26:30;;;;;;;10.55;3.10;;;;;;;20.40;69.13;101220.50;5123084;28;20043;-78
2021/07/19 08:29:01;;;;;;;8.57;2.95;;;;;;;20.31;67.28;101215.81;5124943;28;20638;-79
2021/07/19 08:31:34;;;;;;;12.38;2.83;;;;;;;20.57;66.26;101221.09;5124019;28;20576;-78
2021/07/19 08:34:04;;;;;;;10.52;2.67;;;;;;;20.30;65.75;101212.28;5122565;29;20031;-78
2021/07/19 08:36:35;;;;;;;8.15;2.47;;;;;;;21.67;62.42;101209.00;5123879;28;20046;-78
2021/07/19 08:39:05;;;;;;;8.07;2.35;;;;;;;22.18;60.48;101197.25;5128958;28;20085;-78
2021/07/19 08:41:36;;;;;;;11.32;2.60;;;;;;;22.17;60.42;101206.19;5125372;28;20724;-78
2021/07/19 08:44:10;;;;;;;7.15;2.33;;;;;;;22.15;59.07;101205.47;5129224;28;20492;-78
2021/07/19 08:46:40;;;;;;;6.85;2.50;;;;;;;23.13;58.58;101199.72;5122904;28;20709;-78
2021/07/19 08:49:11;;;;;;;5.55;2.20;;;;;;;23.09;59.35;101193.78;5124112;29;20031;-78
2021/07/19 08:51:44;;;;;;;7.47;2.50;;;;;;;22.64;58.81;101195.56;5123001;29;20078;-78
2021/07/19 08:54:14;;;;;;;7.72;2.55;;;;;;;22.45;58.93;101195.25;5124273;28;20070;-78
2021/07/19 08:56:46;;;;;;;9.00;2.30;;;;;;;21.53;60.69;101199.31;5122595;29;20058;-77
2021/07/19 08:59:17;;;;;;;6.88;2.47;;;;;;;20.82;62.73;101194.56;5122088;28;20297;-77
2021/07/19 09:01:47;;;;;;;7.40;2.55;;;;;;;21.09;64.91;101198.06;5123323;28;20031;-77
2021/07/19 09:04:19;;;;;;;9.65;2.53;;;;;;;21.02;63.95;101199.41;5123472;28;20110;-77
2021/07/19 09:06:49;;;;;;;11.63;2.95;;;;;;;21.19;63.46;101196.44;5122002;29;20023;-77
2021/07/19 09:09:31;;;;;;;8.23;2.53;;;;;;;21.52;62.84;101191.41;5122783;28;20159;-78
2021/07/19 09:12:04;;;;;;;9.60;2.80;;;;;;;21.64;64.40;101187.94;5121001;28;20377;-78
2021/07/19 09:14:37;;;;;;;12.35;2.63;;;;;;;21.53;61.57;101187.81;5128987;28;20402;-77
2021/07/19 09:17:20;;;;;;;7.60;2.60;;;;;;;21.75;61.51;101183.53;5125563;28;20101;-78
2021/07/19 09:19:51;;;;;;;8.02;2.78;;;;;;;22.63;59.56;101175.22;5120758;29;20034;-78
2021/07/19 09:22:31;;;;;;;10.70;2.78;;;;;;;22.19;59.51;101172.31;5123143;28;20031;-78
2021/07/19 09:25:13;;;;;;;11.52;3.00;;;;;;;22.38;59.38;101180.63;5122834;29;20027;-78
2021/07/19 09:27:52;;;;;;;7.75;3.00;;;;;;;22.22;59.77;101177.44;5122492;28;20027;-78
2021/07/19 09:30:29;;;;;;;8.70;2.80;;;;;;;22.05;60.66;101161.84;5123472;28;20027;-78
2021/07/19 09:33:05;;;;;;;10.15;3.40;;;;;;;22.24;60.57;101165.69;5123575;28;20176;-78
2021/07/19 09:35:41;;;;;;;10.68;2.97;;;;;;;21.89;61.67;101170.09;5122331;29;20500;-77
2021/07/19 09:38:14;;;;;;;8.40;2.90;;;;;;;21.76;63.15;101168.44;5122496;28;20019;-78
2021/07/19 09:41:02;;;;;;;12.23;3.15;;;;;;;21.58;64.02;101170.56;5121447;28;20494;-77
2021/07/19 09:43:33;;;;;;;11.10;3.63;;;;;;;21.45;62.13;101163.56;5124103;28;20027;-78
2021/07/19 09:46:05;;;;;;;11.23;3.35;;;;;;;21.49;63.69;101167.69;5126311;28;20031;-78
2021/07/19 09:48:38;;;;;;;9.23;3.13;;;;;;;21.17;64.10;101159.34;5122272;28;20031;-77
2021/07/19 09:51:08;;;;;;;11.90;3.10;;;;;;;20.79;65.15;101160.25;5124797;28;20054;-78
2021/07/19 09:53:41;;;;;;;11.23;3.45;;;;;;;20.56;66.25;101168.94;5121308;29;20027;-78
2021/07/19 09:56:19;;;;;;;8.98;3.38;;;;;;;20.85;65.14;101158.06;5120680;29;20023;-77
2021/07/19 09:59:06;;;;;;;9.95;3.55;;;;;;;20.84;67.15;101160.81;5126739;28;20631;-77
2021/07/19 10:01:40;;;;;;;7.90;3.40;;;;;;;20.95;66.56;101163.59;5124824;29;20517;-78
2021/07/19 10:04:16;;;;;;;11.45;3.70;;;;;;;20.90;65.34;101163.88;5121518;29;20043;-78
2021/07/19 10:06:51;;;;;;;8.10;3.33;;;;;;;20.74;65.66;101167.69;5124035;28;20562;-78
2021/07/19 10:09:22;;;;;;;10.63;3.53;;;;;;;20.59;66.26;101157.22;5130606;28;20062;-77
2021/07/19 10:11:54;;;;;;;11.50;3.85;;;;;;;20.70;67.36;101167.03;5130183;28;20039;-78
2021/07/19 10:14:28;;;;;;;9.55;3.60;;;;;;;20.65;66.66;101167.47;5131226;28;20038;-78
2021/07/19 10:16:59;;;;;;;11.15;3.67;;;;;;;20.78;66.56;101161.19;5128786;28;20031;-77
2021/07/19 10:19:29;;;;;;;10.13;3.40;;;;;;;20.98;66.91;101163.38;5129258;28;20035;-77
2021/07/19 10:22:00;;;;;;;9.48;3.55;;;;;;;21.17;66.82;101159.34;5132143;28;20027;-78
2021/07/19 10:24:30;;;;;;;11.35;3.58;;;;;;;21.39;64.89;101154.19;5129043;28;20037;-78
2021/07/19 10:27:01;;;;;;;10.32;3.65;;;;;;;21.72;65.68;101161.63;5131559;28;20489;-77
2021/07/19 10:29:31;;;;;;;10.75;3.72;;;;;;;21.82;63.91;101150.22;5125486;28;20489;-78
2021/07/19 10:32:02;;;;;;;9.55;3.78;;;;;;;21.71;63.33;101144.81;5125894;28;20027;-78
2021/07/19 10:34:33;;;;;;;14.30;3.97;;;;;;;21.84;63.72;101148.28;5125659;28;20058;-77
2021/07/19 10:37:09;;;;;;;11.18;3.83;;;;;;;21.86;63.90;101149.03;5125413;28;20023;-78
2021/07/19 10:39:43;;;;;;;11.90;3.78;;;;;;;21.63;64.36;101157.81;5125831;28;20027;-77
2021/07/19 10:42:13;;;;;;;9.63;3.33;;;;;;;21.25;63.99;101154.31;5127703;28;20035;-77
2021/07/19 10:44:43;;;;;;;9.27;3.67;;;;;;;21.27;64.83;101151.56;5130231;28;20571;-78
2021/07/19 10:47:26;;;;;;;9.80;3.40;;;;;;;21.26;65.65;101152.53;5125637;28;20023;-77
2021/07/19 10:49:58;;;;;;;10.10;3.90;;;;;;;21.31;66.27;101153.91;5124548;28;20577;-77
2021/07/19 10:52:34;;;;;;;11.18;3.55;;;;;;;21.49;65.58;101149.06;5124074;28;20030;-77
2021/07/19 10:55:07;;;;;;;10.02;3.70;;;;;;;21.60;66.99;101159.81;5123617;28;20035;-77
2021/07/19 10:57:46;;;;;;;13.48;4.07;;;;;;;21.54;66.67;101149.63;5124853;28;20039;-77
2021/07/19 11:00:21;;;;;;;10.23;3.60;;;;;;;21.76;66.59;101137.31;5126279;28;20026;-78
2021/07/19 11:03:07;;;;;;;12.60;4.00;;;;;;;21.93;64.79;101141.44;5131059;28;20404;-77
2021/07/19 11:05:39;;;;;;;9.77;3.45;;;;;;;21.82;63.48;101136.03;5133513;28;20303;-77
2021/07/19 11:08:26;;;;;;;9.30;3.63;;;;;;;22.11;64.02;101134.75;5129681;28;20031;-77
2021/07/19 11:10:58;;;;;;;8.73;3.33;;;;;;;22.01;62.92;101128.41;5128238;28;20046;-77
2021/07/19 11:13:34;;;;;;;12.27;3.50;;;;;;;22.43;62.81;101122.59;5133513;28;20033;-77
2021/07/19 11:16:15;;;;;;;11.50;3.78;;;;;;;22.61;60.93;101121.19;5132428;28;20031;-77
2021/07/19 11:19:13;;;;;;;8.20;3.40;;;;;;;23.25;61.20;101122.28;5128250;28;20027;-77
2021/07/19 11:21:44;;;;;;;9.73;3.33;;;;;;;22.92;61.46;101121.34;5129155;28;20109;-77
2021/07/19 11:24:17;;;;;;;7.80;3.53;;;;;;;22.85;60.89;101123.66;5132237;28;20030;-78
2021/07/19 11:26:58;;;;;;;9.32;2.83;;;;;;;22.51;61.41;101125.50;5129311;28;20055;-78
2021/07/19 11:29:33;;;;;;;8.15;3.17;;;;;;;22.11;61.44;101118.78;5150728;28;20154;-77
2021/07/19 11:32:19;;;;;;;9.20;3.53;;;;;;;21.80;62.39;101125.53;5123150;28;20490;-78
2021/07/19 11:34:49;;;;;;;10.80;3.40;;;;;;;21.85;61.98;101125.16;5123083;28;20398;-77
2021/07/19 11:37:20;;;;;;;8.65;3.78;;;;;;;21.87;63.01;101124.09;5123616;28;20031;-77
2021/07/19 11:39:52;;;;;;;8.10;3.50;;;;;;;22.05;61.72;101121.91;5129535;28;20109;-77
2021/07/19 11:42:31;;;;;;;7.43;3.35;;;;;;;21.97;61.85;101118.94;5125955;28;20035;-77